Time;durP1;ratioP1;P1;durP2;ratioP2;P2;SDS_P1;SDS_P2;PMS_P1;PMS_P2;Temp;Humidity;BMP_temperature;BMP_pressure;BME280_temperature;BME280_humidity;BME280_pressure;Samples;Min_cycle;Max_cycle;Signal;HPM_P1;HPM_P2
2023/05/07 00:00:43;;;;;;;4.97;4.53;;;;;;;16.55;70.49;101512.63;5026461;28;20029;-63
2023/05/07 00:03:08;;;;;;;5.43;4.18;;;;;;;16.55;70.67;101509.81;5010834;28;20021;-63
2023/05/07 00:05:33;;;;;;;5.38;4.80;;;;;;;16.54;70.28;101508.09;5011685;28;20036;-63
2023/05/07 00:07:59;;;;;;;4.70;4.30;;;;;;;16.53;70.05;101512.03;5029535;28;20132;-63
2023/05/07 00:10:25;;;;;;;5.65;4.55;;;;;;;16.48;70.73;101512.03;5030616;28;20029;-63
2023/05/07 00:12:50;;;;;;;5.63;4.60;;;;;;;16.51;70.71;101503.91;5029891;28;20494;-63
2023/05/07 00:15:16;;;;;;;6.10;5.20;;;;;;;16.50;70.90;101492.97;5029695;28;20044;-63
2023/05/07 00:17:41;;;;;;;6.03;5.13;;;;;;;16.53;70.76;101500.81;5009835;28;20026;-63
2023/05/07 00:20:06;;;;;;;6.10;4.82;;;;;;;16.52;71.21;101499.16;5011180;28;20100;-63
2023/05/07 00:22:32;;;;;;;6.00;5.40;;;;;;;16.56;70.83;101495.50;5010908;28;20524;-63
2023/05/07 00:24:57;;;;;;;8.57;5.70;;;;;;;16.49;71.03;101494.09;5023019;28;20109;-63
2023/05/07 00:27:24;;;;;;;6.05;5.25;;;;;;;16.52;70.22;101493.56;5019734;28;20390;-63
2023/05/07 00:29:49;;;;;;;6.18;5.53;;;;;;;16.47;70.74;101485.13;5011870;28;20030;-63
2023/05/07 00:32:15;;;;;;;6.85;5.47;;;;;;;16.47;70.94;101487.94;5020654;28;20076;-64
2023/05/07 00:34:40;;;;;;;6.32;5.70;;;;;;;16.43;71.20;101485.69;5024412;28;20033;-63
2023/05/07 00:37:07;;;;;;;7.57;5.63;;;;;;;16.44;71.42;101489.34;5010800;28;20051;-63
2023/05/07 00:39:33;;;;;;;6.28;5.63;;;;;;;16.42;70.97;101485.94;5029245;28;20037;-63
2023/05/07 00:41:58;;;;;;;7.13;6.30;;;;;;;16.40;71.16;101483.44;5023689;28;20061;-63
2023/05/07 00:44:23;;;;;;;6.38;5.78;;;;;;;16.42;71.30;101485.94;5012217;28;20053;-64
2023/05/07 00:46:49;;;;;;;7.38;6.13;;;;;;;16.39;71.32;101484.56;5023984;28;20026;-63
2023/05/07 00:49:15;;;;;;;7.63;6.15;;;;;;;16.39;71.88;101480.91;5013253;28;20029;-64
2023/05/07 00:51:41;;;;;;;6.82;5.97;;;;;;;16.37;71.64;101467.16;5029507;28;20021;-63
2023/05/07 00:54:07;;;;;;;7.22;6.18;;;;;;;16.35;71.77;101474.19;5031328;28;20065;-63
2023/05/07 00:56:33;;;;;;;6.95;6.28;;;;;;;16.31;72.02;101471.09;5030374;28;20346;-63
2023/05/07 00:58:58;;;;;;;8.10;6.60;;;;;;;16.35;72.09;101466.63;5029247;28;20478;-63
2023/05/07 01:01:23;;;;;;;7.57;6.80;;;;;;;16.34;72.26;101480.88;5013724;28;20466;-63
2023/05/07 01:03:49;;;;;;;7.78;6.97;;;;;;;16.33;72.14;101485.66;5028738;28;20092;-64
2023/05/07 01:06:16;;;;;;;6.97;6.28;;;;;;;16.35;72.32;101480.63;5009954;28;20098;-63
2023/05/07 01:08:42;;;;;;;9.13;6.85;;;;;;;16.32;72.53;101477.53;5010493;28;20030;-63
2023/05/07 01:11:09;;;;;;;8.18;7.05;;;;;;;16.32;72.23;101483.16;5011072;28;20037;-63
2023/05/07 01:13:36;;;;;;;7.32;6.57;;;;;;;16.30;72.76;101485.38;5024639;28;20350;-63
2023/05/07 01:16:02;;;;;;;10.15;7.15;;;;;;;16.29;72.84;101480.88;5011381;28;20053;-63
2023/05/07 01:18:29;;;;;;;7.68;6.88;;;;;;;16.28;72.72;101471.66;5013784;28;20042;-63
2023/05/07 01:20:57;;;;;;;8.80;7.22;;;;;;;16.28;72.90;101471.66;5030568;28;20033;-63
2023/05/07 01:23:23;;;;;;;10.30;8.18;;;;;;;16.30;72.65;101468.56;5022898;28;20033;-64
2023/05/07 01:25:52;;;;;;;9.23;7.40;;;;;;;16.28;72.80;101468.00;5034475;28;20192;-63
2023/05/07 01:28:18;;;;;;;8.00;7.20;;;;;;;16.30;72.89;101458.19;5033480;28;20473;-63
2023/05/07 01:30:47;;;;;;;8.00;7.20;;;;;;;16.29;72.97;101450.91;5034440;28;20052;-63
2023/05/07 01:33:15;;;;;;;8.38;7.50;;;;;;;16.27;72.87;101449.50;5030101;28;20042;-63
2023/05/07 01:35:45;;;;;;;8.48;7.57;;;;;;;16.27;73.11;101441.97;5023253;28;20080;-63
2023/05/07 01:38:12;;;;;;;11.10;7.97;;;;;;;16.28;72.82;101445.59;5028394;28;20069;-63
2023/05/07 01:40:37;;;;;;;8.60;7.78;;;;;;;16.25;73.16;101446.13;5014405;28;20030;-63
2023/05/07 01:43:03;;;;;;;12.23;8.48;;;;;;;16.23;73.07;101448.38;5014227;28;20049;-64
2023/05/07 01:45:30;;;;;;;10.82;8.70;;;;;;;16.25;73.02;101444.19;5013677;28;20029;-63
2023/05/07 01:47:57;;;;;;;10.80;8.55;;;;;;;16.22;72.81;101444.72;5013561;28;20029;-63
2023/05/07 01:50:23;;;;;;;9.73;8.73;;;;;;;16.22;73.22;101441.94;5014868;28;20034;-63
2023/05/07 01:52:50;;;;;;;10.68;9.52;;;;;;;16.22;73.08;101449.50;5014684;28;20171;-63
2023/05/07 01:55:16;;;;;;;10.77;9.23;;;;;;;16.19;73.32;101434.06;5013862;28;20025;-63
2023/05/07 01:57:41;;;;;;;11.52;9.57;;;;;;;16.20;73.54;101430.16;5013555;28;20119;-63
2023/05/07 02:00:08;;;;;;;12.35;9.05;;;;;;;16.19;73.38;101443.34;5014148;28;20440;-63
2023/05/07 02:02:33;;;;;;;11.00;9.65;;;;;;;16.17;73.38;101434.34;5012926;28;20029;-63
2023/05/07 02:05:00;;;;;;;11.32;10.23;;;;;;;16.17;73.35;101441.91;5016762;28;20022;-63
2023/05/07 02:07:25;;;;;;;11.88;9.98;;;;;;;16.16;73.12;101440.25;5034146;28;20029;-63
2023/05/07 02:09:50;;;;;;;12.35;9.73;;;;;;;16.13;73.37;101436.03;5027673;28;20026;-63
2023/05/07 02:12:16;;;;;;;12.23;10.25;;;;;;;16.17;73.39;101439.13;5016007;28;20030;-63
2023/05/07 02:14:41;;;;;;;10.38;9.38;;;;;;;16.11;73.39;101429.88;5013907;28;20465;-63
2023/05/07 02:17:07;;;;;;;11.15;10.05;;;;;;;16.12;73.52;101439.97;5012647;28;20026;-63
2023/05/07 02:19:32;;;;;;;12.73;10.07;;;;;;;16.11;73.63;101438.28;5025364;28;20029;-63
2023/05/07 02:21:58;;;;;;;11.20;10.05;;;;;;;16.11;73.65;101448.63;5022690;28;20393;-63
2023/05/07 02:24:23;;;;;;;10.90;9.80;;;;;;;16.12;73.79;101450.31;5023607;28;20033;-63
2023/05/07 02:26:48;;;;;;;11.95;10.48;;;;;;;16.11;73.65;101443.00;5024498;28;20639;-64
2023/05/07 02:29:14;;;;;;;12.32;11.00;;;;;;;16.09;73.90;101445.25;5016184;28;20033;-63
2023/05/07 02:31:39;;;;;;;12.43;11.18;;;;;;;16.08;74.13;101460.38;5027198;28;21979;-63
2023/05/07 02:34:04;;;;;;;12.43;10.30;;;;;;;16.06;74.10;101455.03;5018480;28;20041;-64
2023/05/07 02:36:30;;;;;;;14.75;10.38;;;;;;;16.07;74.20;101461.47;5012282;28;20030;-63
2023/05/07 02:38:55;;;;;;;13.63;11.07;;;;;;;16.05;74.20;101461.78;5020123;28;20025;-63
2023/05/07 02:41:21;;;;;;;13.13;11.32;;;;;;;16.07;74.30;101453.09;5032792;28;20104;-63
2023/05/07 02:43:46;;;;;;;11.68;10.48;;;;;;;16.09;74.14;101448.06;5023011;28;20112;-63
2023/05/07 02:46:11;;;;;;;12.18;10.90;;;;;;;16.09;74.16;101445.25;5018889;28;20028;-63
2023/05/07 02:48:37;;;;;;;13.93;12.27;;;;;;;16.06;74.10;101443.84;5016839;28;20474;-63
2023/05/07 02:51:03;;;;;;;13.35;12.00;;;;;;;16.07;74.23;101453.09;5011542;28;20808;-63
2023/05/07 02:53:29;;;;;;;13.43;11.60;;;;;;;16.07;74.29;101453.94;5014097;28;20029;-64
2023/05/07 02:56:00;;;;;;;16.33;13.30;;;;;;;16.02;74.52;101461.47;5012964;28;20030;-63
2023/05/07 02:58:25;;;;;;;14.27;12.77;;;;;;;16.01;74.43;101459.81;5014543;28;20083;-64
2023/05/07 03:00:51;;;;;;;13.90;12.60;;;;;;;16.03;74.52;101461.19;5021768;28;20489;-63
2023/05/07 03:03:16;;;;;;;15.38;13.80;;;;;;;15.99;74.78;101453.63;5016050;28;20052;-63
2023/05/07 03:05:42;;;;;;;15.15;13.55;;;;;;;15.98;74.67;101449.97;5024809;28;20034;-63
2023/05/07 03:08:08;;;;;;;14.88;13.27;;;;;;;16.00;74.82;101444.97;5012642;28;20030;-63
2023/05/07 03:10:33;;;;;;;15.25;13.65;;;;;;;15.99;74.97;101440.47;5015583;28;20030;-63
2023/05/07 03:12:59;;;;;;;18.23;14.75;;;;;;;16.04;74.67;101448.91;5010441;28;20592;-63
2023/05/07 03:15:24;;;;;;;15.93;14.43;;;;;;;16.03;74.69;101441.59;5016545;28;20033;-64
2023/05/07 03:17:50;;;;;;;17.70;15.93;;;;;;;16.03;74.56;101450.00;5023328;28;20109;-63
2023/05/07 03:20:15;;;;;;;18.08;15.73;;;;;;;16.01;75.21;101445.81;5023255;28;20034;-63
2023/05/07 03:22:41;;;;;;;17.20;15.55;;;;;;;16.00;75.19;101446.94;5030105;28;20018;-63
2023/05/07 03:25:07;;;;;;;17.10;15.30;;;;;;;15.98;75.33;101444.38;5015195;28;20033;-63
2023/05/07 03:27:32;;;;;;;19.10;16.35;;;;;;;15.96;75.40;101435.44;5010607;28;20108;-63
2023/05/07 03:29:58;;;;;;;18.42;16.52;;;;;;;16.00;75.46;101438.53;5011064;28;20124;-62
2023/05/07 03:32:23;;;;;;;18.15;16.02;;;;;;;15.99;75.24;101434.84;5019456;28;20418;-63
2023/05/07 03:34:48;;;;;;;19.35;16.38;;;;;;;16.02;75.22;101427.88;5026863;28;20034;-64
2023/05/07 03:37:14;;;;;;;18.42;15.70;;;;;;;16.02;75.02;101441.88;5031174;28;20121;-63
2023/05/07 03:39:39;;;;;;;17.83;16.02;;;;;;;15.97;75.09;101436.28;5014548;28;20386;-63
2023/05/07 03:42:04;;;;;;;17.88;16.02;;;;;;;15.99;75.27;101434.03;5010113;28;20036;-63
2023/05/07 03:44:30;;;;;;;18.15;16.35;;;;;;;16.00;75.37;101433.75;5024009;28;20108;-63
2023/05/07 03:46:55;;;;;;;19.25;16.55;;;;;;;15.94;75.39;101432.06;5011320;28;20034;-64
2023/05/07 03:49:21;;;;;;;17.60;15.77;;;;;;;15.93;75.42;101428.41;5019530;28;20034;-63
2023/05/07 03:51:46;;;;;;;19.30;17.30;;;;;;;15.92;75.44;101434.31;5031168;28;20028;-63
2023/05/07 03:54:11;;;;;;;18.33;16.38;;;;;;;15.92;75.54;101435.13;5019123;28;20504;-63
2023/05/07 03:56:37;;;;;;;19.92;17.85;;;;;;;15.89;75.75;101434.84;5011645;28;20069;-63
2023/05/07 03:59:02;;;;;;;19.73;17.80;;;;;;;15.88;75.54;101442.41;5011155;28;20134;-64
2023/05/07 04:01:28;;;;;;;20.55;18.45;;;;;;;15.86;75.96;101443.78;5010603;28;20108;-63
2023/05/07 04:03:53;;;;;;;20.33;17.77;;;;;;;15.89;75.75;101455.28;5011635;28;20029;-63
2023/05/07 04:06:18;;;;;;;19.65;17.65;;;;;;;15.87;75.89;101451.91;5022642;28;20489;-63
2023/05/07 04:08:43;;;;;;;22.45;18.30;;;;;;;15.88;75.83;101453.59;5030774;28;20495;-63
2023/05/07 04:11:09;;;;;;;19.40;17.52;;;;;;;15.87;75.84;101457.50;5025602;28;20033;-63
2023/05/07 04:13:34;;;;;;;20.33;18.25;;;;;;;15.85;75.90;101462.53;5011300;28;20089;-63
2023/05/07 04:16:02;;;;;;;21.00;18.90;;;;;;;15.82;76.12;101460.28;5010728;28;20041;-63
2023/05/07 04:18:27;;;;;;;19.25;17.40;;;;;;;15.82;76.16;101465.88;5011029;28;20025;-64
2023/05/07 04:20:53;;;;;;;21.30;19.02;;;;;;;15.82;76.26;101463.09;5010674;28;20482;-63
2023/05/07 04:23:18;;;;;;;21.33;19.13;;;;;;;15.82;76.40;101462.25;5010774;28;20030;-64
2023/05/07 04:25:43;;;;;;;20.73;18.63;;;;;;;15.82;76.34;101460.28;5011251;28;20049;-63
2023/05/07 04:28:08;;;;;;;20.83;18.25;;;;;;;15.84;76.13;101458.06;5016065;28;20025;-63
2023/05/07 04:30:34;;;;;;;20.88;18.10;;;;;;;15.89;75.73;101460.88;5029828;28;20026;-63
2023/05/07 04:32:59;;;;;;;19.73;17.73;;;;;;;15.85;76.08;101465.34;5030871;28;20022;-64
2023/05/07 04:35:24;;;;;;;20.73;18.55;;;;;;;15.86;76.05;101454.97;5030468;28;20425;-63
2023/05/07 04:37:50;;;;;;;19.98;18.00;;;;;;;15.87;76.01;101460.28;5030379;28;20080;-63
2023/05/07 04:40:15;;;;;;;21.13;18.83;;;;;;;15.85;76.25;101459.75;5030234;28;20075;-63
2023/05/07 04:42:41;;;;;;;19.77;17.70;;;;;;;15.83;76.52;101473.16;5020598;28;20509;-64
2023/05/07 04:45:06;;;;;;;20.67;18.15;;;;;;;15.84;76.45;101471.22;5009832;28;20022;-64
2023/05/07 04:47:32;;;;;;;19.00;16.92;;;;;;;15.89;76.15;101468.44;5013641;28;20064;-64
2023/05/07 04:49:58;;;;;;;20.00;17.90;;;;;;;15.86;76.22;101468.97;5016671;28;20470;-63
2023/05/07 04:52:23;;;;;;;24.92;18.15;;;;;;;15.83;76.23;101461.97;5030482;28;20029;-64
2023/05/07 04:54:48;;;;;;;20.08;18.08;;;;;;;15.85;76.25;101472.91;5030468;28;20468;-63
2023/05/07 04:57:14;;;;;;;21.20;17.83;;;;;;;15.83;76.42;101470.34;5034685;28;20033;-63
2023/05/07 04:59:39;;;;;;;20.92;18.38;;;;;;;15.79;76.47;101476.78;5033398;28;20033;-63
2023/05/07 05:02:05;;;;;;;19.73;17.80;;;;;;;15.79;76.84;101479.56;5029845;28;20073;-63
2023/05/07 05:04:30;;;;;;;20.67;18.52;;;;;;;15.78;77.04;101478.75;5013811;28;20076;-63
2023/05/07 05:06:56;;;;;;;19.90;17.95;;;;;;;15.80;76.68;101475.66;5020981;28;20381;-63
2023/05/07 05:09:21;;;;;;;21.58;19.25;;;;;;;15.78;76.82;101478.75;5034086;28;20420;-63
2023/05/07 05:11:46;;;;;;;20.60;18.48;;;;;;;15.82;76.80;101479.03;5033589;28;20044;-63
2023/05/07 05:14:12;;;;;;;22.00;19.55;;;;;;;15.84;76.68;101482.41;5033510;28;20562;-63
2023/05/07 05:16:37;;;;;;;21.17;19.15;;;;;;;15.84;76.83;101486.06;5033431;28;20497;-63
2023/05/07 05:19:02;;;;;;;21.23;19.13;;;;;;;15.84;76.56;101482.41;5014308;28;20477;-63
2023/05/07 05:21:28;;;;;;;21.73;19.02;;;;;;;15.83;77.00;101478.75;5013915;28;20034;-63
2023/05/07 05:23:53;;;;;;;21.58;19.20;;;;;;;15.90;77.30;101484.94;5014249;28;20030;-63
2023/05/07 05:26:21;;;;;;;21.75;19.55;;;;;;;15.93;76.65;101490.00;5013488;28;20042;-63
2023/05/07 05:28:46;;;;;;;21.98;19.77;;;;;;;15.90;77.04;101493.34;5014671;28;20038;-63
2023/05/07 05:31:11;;;;;;;21.58;19.52;;;;;;;15.96;77.04;101488.63;5014309;28;20029;-63
2023/05/07 05:33:36;;;;;;;22.55;20.08;;;;;;;15.97;76.90;101492.25;5013759;28;20037;-63
2023/05/07 05:36:02;;;;;;;21.50;19.38;;;;;;;15.99;76.89;101498.41;5014580;28;20069;-63
2023/05/07 05:38:27;;;;;;;22.30;20.10;;;;;;;15.97;76.90;101497.88;5014407;28;20433;-63
2023/05/07 05:40:52;;;;;;;22.52;20.23;;;;;;;15.97;77.15;101492.25;5014413;28;20120;-63
2023/05/07 05:43:17;;;;;;;22.48;20.15;;;;;;;16.00;77.38;101502.94;5019091;28;20060;-65
2023/05/07 05:45:43;;;;;;;21.13;19.15;;;;;;;15.98;77.35;101503.19;5034025;28;20029;-64
2023/05/07 05:48:08;;;;;;;21.98;19.77;;;;;;;16.00;77.31;101503.75;5032733;28;20068;-64
2023/05/07 05:50:36;;;;;;;22.67;20.58;;;;;;;16.01;77.27;101511.03;5033688;28;20433;-62
2023/05/07 05:53:01;;;;;;;22.38;20.05;;;;;;;16.01;77.43;101502.63;5032647;28;20030;-63
2023/05/07 05:55:26;;;;;;;21.73;19.48;;;;;;;16.04;77.18;101509.66;5030482;28;21522;-63
2023/05/07 05:57:52;;;;;;;24.33;21.83;;;;;;;16.00;77.71;101500.97;5033808;28;20056;-63
2023/05/07 06:00:17;;;;;;;22.58;20.38;;;;;;;16.05;77.41;101503.78;5033611;28;20053;-63
2023/05/07 06:02:43;;;;;;;22.42;20.08;;;;;;;16.06;77.60;101496.22;5021457;28;20025;-63
2023/05/07 06:05:11;;;;;;;22.98;20.58;;;;;;;16.08;77.25;101505.19;5017825;28;20037;-63
2023/05/07 06:07:36;;;;;;;24.17;21.50;;;;;;;16.11;77.19;101513.03;5016420;28;20052;-63
2023/05/07 06:10:01;;;;;;;24.60;22.10;;;;;;;16.11;77.32;101504.63;5026445;28;20454;-63
2023/05/07 06:12:29;;;;;;;23.45;21.15;;;;;;;16.11;77.29;101507.44;5018255;28;20045;-64
2023/05/07 06:14:54;;;;;;;23.10;20.85;;;;;;;16.12;77.46;101506.34;5032006;28;20512;-63
2023/05/07 06:17:20;;;;;;;23.13;20.83;;;;;;;16.15;77.20;101506.63;5026283;28;20026;-63
2023/05/07 06:19:45;;;;;;;23.17;20.75;;;;;;;16.17;77.34;101503.53;5013146;28;20030;-63
2023/05/07 06:22:10;;;;;;;22.92;20.55;;;;;;;16.17;77.83;101503.53;5012798;28;20060;-64
2023/05/07 06:24:35;;;;;;;22.13;20.05;;;;;;;16.20;77.39;101498.22;5018143;28;20041;-63
2023/05/07 06:27:01;;;;;;;23.58;21.13;;;;;;;16.19;77.61;101507.75;5028226;28;20038;-63
2023/05/07 06:29:26;;;;;;;24.50;21.48;;;;;;;16.24;77.64;101506.09;5012060;28;20056;-64
2023/05/07 06:31:52;;;;;;;23.90;21.38;;;;;;;16.24;77.79;101498.53;5013703;28;20378;-63
2023/05/07 06:34:18;;;;;;;23.90;21.38;;;;;;;16.24;77.84;101504.13;5012657;28;20038;-63
2023/05/07 06:36:43;;;;;;;23.45;21.05;;;;;;;16.28;77.52;101501.63;5012451;28;20029;-63
2023/05/07 06:39:08;;;;;;;26.05;23.30;;;;;;;16.30;77.32;101505.81;5012583;28;20026;-63
2023/05/07 06:41:35;;;;;;;23.23;21.13;;;;;;;16.31;77.57;101506.66;5012750;28;20032;-63
2023/05/07 06:44:01;;;;;;;23.45;21.20;;;;;;;16.30;77.52;101519.81;5012756;28;20029;-63
2023/05/07 06:46:27;;;;;;;23.58;21.27;;;;;;;16.30;77.49;101510.56;5013111;28;20106;-63
2023/05/07 06:48:53;;;;;;;23.52;21.13;;;;;;;16.33;77.67;101512.84;5012342;28;20089;-63
2023/05/07 06:51:18;;;;;;;23.98;21.58;;;;;;;16.34;77.50;101526.56;5013178;28;20417;-63
2023/05/07 06:53:43;;;;;;;23.17;20.73;;;;;;;16.34;77.45;101522.91;5023811;28;20451;-65
2023/05/07 06:56:08;;;;;;;22.80;20.42;;;;;;;16.33;77.38;101527.69;5015553;28;20037;-64
2023/05/07 06:58:34;;;;;;;23.58;21.30;;;;;;;16.31;77.41;101521.53;5018321;28;20029;-64
2023/05/07 07:00:59;;;;;;;23.15;20.85;;;;;;;16.31;77.55;101529.94;5012478;28;20034;-63
2023/05/07 07:03:25;;;;;;;23.25;20.77;;;;;;;16.34;77.35;101529.34;5011048;28;20065;-64
2023/05/07 07:05:54;;;;;;;25.70;22.00;;;;;;;16.32;77.38;101534.41;5011925;28;20033;-64
2023/05/07 07:08:21;;;;;;;23.60;21.23;;;;;;;16.29;77.25;101529.34;5012355;28;20026;-64
2023/05/07 07:10:46;;;;;;;22.98;20.77;;;;;;;16.26;77.50;101532.69;5012847;28;20064;-63
2023/05/07 07:13:11;;;;;;;21.60;19.50;;;;;;;16.30;77.13;101533.81;5010807;28;20073;-63
2023/05/07 07:15:37;;;;;;;23.25;21.00;;;;;;;16.34;76.94;101525.72;5032345;28;20034;-63
2023/05/07 07:18:02;;;;;;;24.27;21.73;;;;;;;16.32;77.33;101528.81;5030129;28;20037;-64
2023/05/07 07:20:27;;;;;;;24.25;21.58;;;;;;;16.34;77.61;101526.56;5029733;28;20036;-63
2023/05/07 07:22:53;;;;;;;16.60;14.80;;;;;;;16.41;77.09;101538.34;5025614;28;20412;-62
2023/05/07 07:25:18;;;;;;;23.98;21.48;;;;;;;16.36;77.64;101532.75;5017349;28;20025;-62
2023/05/07 07:27:44;;;;;;;24.73;22.10;;;;;;;16.35;78.03;101539.47;5019610;28;20037;-64
2023/05/07 07:30:10;;;;;;;24.20;21.42;;;;;;;16.37;77.91;101537.22;5011550;28;20092;-62
2023/05/07 07:32:35;;;;;;;23.10;20.83;;;;;;;16.40;78.08;101533.88;5011381;28;20033;-62
2023/05/07 07:35:01;;;;;;;24.13;21.45;;;;;;;16.41;77.86;101538.34;5016654;28;20030;-64
2023/05/07 07:37:26;;;;;;;22.90;20.60;;;;;;;16.44;77.62;101539.75;5020340;28;20026;-65
2023/05/07 07:39:52;;;;;;;22.52;20.33;;;;;;;16.48;77.43;101551.25;5014402;28;20087;-65
2023/05/07 07:42:18;;;;;;;24.08;20.40;;;;;;;16.46;77.27;101548.72;5026402;28;20044;-65
2023/05/07 07:44:43;;;;;;;23.00;20.60;;;;;;;16.45;77.91;101544.25;5026640;28;20041;-65
2023/05/07 07:47:08;;;;;;;23.63;21.20;;;;;;;16.48;77.33;101542.88;5015442;28;20095;-65
2023/05/07 07:49:34;;;;;;;23.13;20.85;;;;;;;16.50;77.43;101549.00;5012320;28;20064;-67
2023/05/07 07:51:59;;;;;;;23.33;21.02;;;;;;;16.56;77.44;101545.97;5009461;28;20671;-65
2023/05/07 07:54:25;;;;;;;24.90;21.67;;;;;;;16.55;77.57;101551.84;5012275;28;20033;-64
2023/05/07 07:56:50;;;;;;;18.60;16.60;;;;;;;16.62;77.21;101556.06;5025265;28;20045;-63
2023/05/07 07:59:18;;;;;;;21.88;19.77;;;;;;;16.60;77.09;101552.69;5021698;28;20053;-64
2023/05/07 08:01:44;;;;;;;23.67;21.25;;;;;;;16.60;77.32;101549.88;5014109;28;20113;-64
2023/05/07 08:04:09;;;;;;;23.70;21.15;;;;;;;16.64;77.35;101547.38;5013057;28;20113;-62
2023/05/07 08:06:35;;;;;;;22.17;19.88;;;;;;;16.66;77.13;101545.13;5014714;28;20513;-63
2023/05/07 08:09:00;;;;;;;24.50;20.70;;;;;;;16.65;77.39;101544.28;5019596;28;20476;-62
2023/05/07 08:11:26;;;;;;;24.60;22.20;;;;;;;16.60;77.43;101549.88;5018287;28;20103;-63
2023/05/07 08:13:51;;;;;;;22.27;20.13;;;;;;;16.61;77.64;101545.13;5024486;28;20401;-63
2023/05/07 08:16:16;;;;;;;23.42;20.92;;;;;;;16.69;77.59;101553.00;5025538;28;20045;-63
2023/05/07 08:18:41;;;;;;;24.08;21.58;;;;;;;16.73;77.83;101554.16;5020629;28;20043;-63
2023/05/07 08:21:07;;;;;;;25.17;21.30;;;;;;;16.79;77.29;101552.22;5008761;28;20046;-63
2023/05/07 08:23:34;;;;;;;23.77;21.38;;;;;;;16.83;76.79;101554.19;5022265;28;20426;-64
2023/05/07 08:26:00;;;;;;;22.42;20.13;;;;;;;16.85;77.31;101549.13;5014959;28;20119;-66
2023/05/07 08:28:25;;;;;;;22.73;20.52;;;;;;;16.88;76.73;101550.53;5021489;28;20026;-63
2023/05/07 08:30:50;;;;;;;23.17;20.63;;;;;;;16.90;76.62;101557.56;5015812;28;20494;-63
2023/05/07 08:33:15;;;;;;;21.73;19.67;;;;;;;16.90;76.70;101560.38;5013051;28;20025;-62
2023/05/07 08:35:41;;;;;;;22.30;20.17;;;;;;;16.92;76.63;101560.91;5018273;28;20088;-61
2023/05/07 08:38:06;;;;;;;21.85;19.65;;;;;;;16.97;77.18;101556.44;5022107;28;20025;-64
2023/05/07 08:40:38;;;;;;;22.00;19.80;;;;;;;17.01;76.94;101557.56;5024751;28;20033;-66
2023/05/07 08:43:06;;;;;;;22.88;20.45;;;;;;;17.07;77.28;101550.84;5013852;28;20025;-66
2023/05/07 08:45:33;;;;;;;21.48;19.38;;;;;;;17.09;76.74;101559.78;5025337;28;20033;-67
2023/05/07 08:48:01;;;;;;;23.05;20.73;;;;;;;17.12;76.43;101560.09;5013537;28;20481;-65
2023/05/07 08:50:27;;;;;;;24.35;21.92;;;;;;;17.15;76.88;101567.94;5025405;28;20036;-67
2023/05/07 08:52:52;;;;;;;25.55;22.83;;;;;;;17.16;76.48;101569.63;5017385;28;20108;-66
2023/05/07 08:55:18;;;;;;;25.73;23.23;;;;;;;17.15;76.78;101564.31;5010700;28;20073;-65
2023/05/07 08:57:46;;;;;;;24.23;21.88;;;;;;;17.13;76.81;101567.41;5021568;28;20481;-65
2023/05/07 09:00:12;;;;;;;25.50;23.02;;;;;;;17.15;76.41;101567.09;5007849;28;20043;-65
2023/05/07 09:02:38;;;;;;;25.58;22.92;;;;;;;17.15;76.34;101570.75;5008227;28;20029;-66
2023/05/07 09:05:04;;;;;;;24.67;22.35;;;;;;;17.18;76.38;101573.00;5010577;28;20026;-64
2023/05/07 09:07:30;;;;;;;25.40;22.70;;;;;;;17.22;76.59;101569.66;5010979;28;20496;-64
2023/05/07 09:09:56;;;;;;;25.05;22.40;;;;;;;17.25;76.68;101567.13;5016854;28;20030;-64
2023/05/07 09:12:22;;;;;;;25.35;22.80;;;;;;;17.29;77.06;101571.06;5011981;28;20515;-63
2023/05/07 09:14:47;;;;;;;26.48;23.92;;;;;;;17.32;76.82;101569.63;5011770;28;20034;-63
2023/05/07 09:17:15;;;;;;;25.58;23.17;;;;;;;17.36;76.55;101576.34;5018283;28;20139;-64
2023/05/07 09:19:40;;;;;;;25.70;23.20;;;;;;;17.38;76.46;101572.16;5013175;28;20033;-64
2023/05/07 09:22:07;;;;;;;26.08;23.45;;;;;;;17.40;76.29;101569.06;5009682;28;20056;-64
2023/05/07 09:24:37;;;;;;;29.67;24.45;;;;;;;17.42;75.89;101573.28;5021122;28;20026;-64
2023/05/07 09:27:03;;;;;;;24.73;22.42;;;;;;;17.43;76.18;101572.13;5028884;28;20728;-64
2023/05/07 09:29:29;;;;;;;27.98;25.17;;;;;;;17.46;76.76;101573.56;5010792;28;20146;-63
2023/05/07 09:31:55;;;;;;;25.52;22.77;;;;;;;17.48;76.09;101576.06;5010055;28;20044;-64
2023/05/07 09:34:21;;;;;;;27.17;24.42;;;;;;;17.49;76.11;101569.31;5007459;28;20544;-65
2023/05/07 09:36:46;;;;;;;25.73;23.23;;;;;;;17.50;75.98;101571.88;5018885;28;20363;-65
2023/05/07 09:39:13;;;;;;;28.75;25.95;;;;;;;17.53;76.89;101576.09;5008194;28;20034;-66
2023/05/07 09:41:45;;;;;;;26.83;24.13;;;;;;;17.54;76.72;101569.34;5014509;28;20535;-65
2023/05/07 09:44:11;;;;;;;27.70;25.15;;;;;;;17.56;76.56;101578.31;5016151;28;20037;-64
2023/05/07 09:46:38;;;;;;;27.42;24.63;;;;;;;17.59;76.94;101580.56;5018849;28;20434;-64
2023/05/07 09:49:08;;;;;;;27.83;25.00;;;;;;;17.63;76.62;101579.69;5025066;28;20037;-63
2023/05/07 09:51:41;;;;;;;26.15;22.50;;;;;;;17.68;75.50;101576.03;5025733;28;20037;-65
2023/05/07 09:54:06;;;;;;;25.23;22.83;;;;;;;17.71;75.40;101572.66;5010740;28;20030;-65
2023/05/07 09:56:33;;;;;;;24.77;21.98;;;;;;;17.72;74.45;101573.50;5018059;28;20099;-63
2023/05/07 09:59:00;;;;;;;24.42;21.92;;;;;;;17.73;75.01;101569.59;5024953;28;20034;-63
2023/05/07 10:01:27;;;;;;;25.73;23.25;;;;;;;17.76;75.38;101581.09;5032353;28;20029;-64
2023/05/07 10:03:53;;;;;;;26.13;23.40;;;;;;;17.81;75.53;101574.66;5018165;28;20052;-63
2023/05/07 10:06:22;;;;;;;26.20;23.50;;;;;;;17.85;76.08;101573.81;5014887;28;20524;-63
2023/05/07 10:08:49;;;;;;;24.83;22.38;;;;;;;17.89;75.39;101580.53;5014873;28;20033;-65
2023/05/07 10:11:15;;;;;;;25.00;22.40;;;;;;;17.90;74.89;101584.19;5021015;28;20341;-62
2023/05/07 10:13:41;;;;;;;25.02;22.67;;;;;;;17.90;74.72;101576.59;5016801;28;20056;-64
2023/05/07 10:16:07;;;;;;;24.15;21.73;;;;;;;17.93;74.65;101571.53;5023527;28;20037;-63
2023/05/07 10:18:33;;;;;;;24.80;22.20;;;;;;;17.99;74.03;101576.00;5031280;28;20535;-61
2023/05/07 10:21:10;;;;;;;23.23;20.95;;;;;;;18.01;74.51;101577.41;5021917;28;20108;-61
2023/05/07 10:23:38;;;;;;;23.35;21.05;;;;;;;18.04;74.28;101576.84;5021038;28;20022;-61
2023/05/07 10:26:06;;;;;;;23.15;20.65;;;;;;;18.08;72.59;101582.75;5018369;28;20029;-65
2023/05/07 10:28:37;;;;;;;15.60;11.15;;;;;;;18.23;73.02;101579.84;5017254;28;20029;-63
2023/05/07 10:31:09;;;;;;;14.85;13.30;;;;;;;18.32;73.34;101575.34;5025716;28;20180;-63
2023/05/07 10:33:37;;;;;;;24.25;14.38;;;;;;;18.42;73.46;101570.78;5011627;28;20072;-63
2023/05/07 10:36:04;;;;;;;24.15;20.75;;;;;;;18.50;73.23;101581.41;5020724;28;20076;-63
2023/05/07 10:38:30;;;;;;;22.48;20.15;;;;;;;18.52;72.18;101584.81;5023817;28;20053;-65
2023/05/07 10:40:55;;;;;;;18.98;16.75;;;;;;;18.68;72.50;101580.78;5013621;28;20059;-65
2023/05/07 10:43:21;;;;;;;126.45;28.15;;;;;;;18.71;71.96;101573.78;5027227;28;20026;-65
2023/05/07 10:46:18;;;;;;;27.45;20.60;;;;;;;18.73;71.78;101579.94;5027420;28;20034;-65
2023/05/07 10:49:02;;;;;;;20.02;15.65;;;;;;;18.76;71.47;101576.53;5013701;28;20037;-65
2023/05/07 10:51:30;;;;;;;20.63;18.55;;;;;;;18.72;71.96;101576.28;5016626;28;20048;-65
2023/05/07 10:54:18;;;;;;;22.05;19.83;;;;;;;18.75;72.12;101580.50;5014834;28;20026;-65
2023/05/07 10:56:44;;;;;;;18.95;17.05;;;;;;;18.75;70.40;101574.88;4999868;28;20060;-66
2023/05/07 10:59:23;;;;;;;19.23;17.27;;;;;;;18.75;70.65;101578.53;5012629;28;20014;-64
2023/05/07 11:02:03;;;;;;;19.95;17.88;;;;;;;18.79;71.04;101581.59;5020297;28;20053;-65
2023/05/07 11:04:31;;;;;;;20.88;18.77;;;;;;;18.76;70.31;101582.16;5032237;28;20037;-65
2023/05/07 11:07:05;;;;;;;19.70;17.58;;;;;;;18.79;70.80;101581.59;5026819;28;20092;-68